sensor_id;sensor_type;location;lat;lon;timestamp;P1;durP1;ratioP1;P2;durP2;ratioP2
69822;SDS011;57119;52.516;13.508;2023-05-27T00:00:34;10.90;;;2.73;;
69822;SDS011;57119;52.516;13.508;2023-05-27T00:02:59;12.75;;;2.92;;
69822;SDS011;57119;52.516;13.508;2023-05-27T00:05:27;14.67;;;3.73;;
69822;SDS011;57119;52.516;13.508;2023-05-27T00:07:52;13.53;;;2.43;;
69822;SDS011;57119;52.516;13.508;2023-05-27T00:10:18;21.25;;;6.68;;
69822;SDS011;57119;52.516;13.508;2023-05-27T00:12:43;22.03;;;6.83;;
69822;SDS011;57119;52.516;13.508;2023-05-27T00:15:09;11.17;;;4.23;;
69822;SDS011;57119;52.516;13.508;2023-05-27T00:17:34;11.38;;;3.25;;
69822;SDS011;57119;52.516;13.508;2023-05-27T00:20:00;7.33;;;2.60;;
69822;SDS011;57119;52.516;13.508;2023-05-27T00:22:31;19.17;;;4.50;;
69822;SDS011;57119;52.516;13.508;2023-05-27T00:24:57;12.00;;;3.15;;
69822;SDS011;57119;52.516;13.508;2023-05-27T00:27:22;9.43;;;2.67;;
69822;SDS011;57119;52.516;13.508;2023-05-27T00:29:48;11.17;;;3.30;;
69822;SDS011;57119;52.516;13.508;2023-05-27T00:32:13;8.27;;;2.40;;
69822;SDS011;57119;52.516;13.508;2023-05-27T00:34:38;10.50;;;2.87;;
69822;SDS011;57119;52.516;13.508;2023-05-27T00:37:04;11.85;;;2.90;;
69822;SDS011;57119;52.516;13.508;2023-05-27T00:39:30;13.45;;;2.80;;
69822;SDS011;57119;52.516;13.508;2023-05-27T00:41:55;13.30;;;3.07;;
69822;SDS011;57119;52.516;13.508;2023-05-27T00:44:22;8.73;;;3.55;;
69822;SDS011;57119;52.516;13.508;2023-05-27T00:46:48;8.53;;;2.60;;
69822;SDS011;57119;52.516;13.508;2023-05-27T00:49:13;7.63;;;2.53;;
69822;SDS011;57119;52.516;13.508;2023-05-27T00:51:39;12.30;;;2.97;;
69822;SDS011;57119;52.516;13.508;2023-05-27T00:54:06;11.53;;;3.23;;
69822;SDS011;57119;52.516;13.508;2023-05-27T00:56:33;13.15;;;3.55;;
69822;SDS011;57119;52.516;13.508;2023-05-27T00:58:58;10.27;;;3.03;;
69822;SDS011;57119;52.516;13.508;2023-05-27T01:01:24;11.35;;;2.88;;
69822;SDS011;57119;52.516;13.508;2023-05-27T01:03:53;11.37;;;2.70;;
69822;SDS011;57119;52.516;13.508;2023-05-27T01:06:33;9.35;;;2.90;;
69822;SDS011;57119;52.516;13.508;2023-05-27T01:14:33;12.00;;;2.92;;
69822;SDS011;57119;52.516;13.508;2023-05-27T01:16:59;11.97;;;3.13;;
69822;SDS011;57119;52.516;13.508;2023-05-27T01:19:39;11.13;;;2.92;;
69822;SDS011;57119;52.516;13.508;2023-05-27T01:22:07;12.73;;;3.08;;
69822;SDS011;57119;52.516;13.508;2023-05-27T01:24:37;13.52;;;4.05;;
69822;SDS011;57119;52.516;13.508;2023-05-27T01:27:02;11.83;;;2.97;;
69822;SDS011;57119;52.516;13.508;2023-05-27T01:29:28;11.55;;;3.30;;
69822;SDS011;57119;52.516;13.508;2023-05-27T01:31:56;11.97;;;2.70;;
69822;SDS011;57119;52.516;13.508;2023-05-27T01:34:44;13.77;;;2.90;;
69822;SDS011;57119;52.516;13.508;2023-05-27T01:37:16;11.27;;;3.10;;
69822;SDS011;57119;52.516;13.508;2023-05-27T01:39:45;11.43;;;3.20;;
69822;SDS011;57119;52.516;13.508;2023-05-27T01:42:13;11.07;;;2.67;;
69822;SDS011;57119;52.516;13.508;2023-05-27T01:44:40;9.60;;;3.03;;
69822;SDS011;57119;52.516;13.508;2023-05-27T01:47:07;10.77;;;2.97;;
69822;SDS011;57119;52.516;13.508;2023-05-27T01:49:32;8.93;;;3.10;;
69822;SDS011;57119;52.516;13.508;2023-05-27T01:51:58;9.50;;;2.77;;
69822;SDS011;57119;52.516;13.508;2023-05-27T01:54:24;9.87;;;2.97;;
69822;SDS011;57119;52.516;13.508;2023-05-27T01:56:49;9.52;;;3.30;;
69822;SDS011;57119;52.516;13.508;2023-05-27T01:59:14;12.13;;;3.40;;
69822;SDS011;57119;52.516;13.508;2023-05-27T02:01:40;11.83;;;3.80;;
69822;SDS011;57119;52.516;13.508;2023-05-27T02:04:07;13.98;;;3.38;;
69822;SDS011;57119;52.516;13.508;2023-05-27T02:06:32;9.83;;;2.70;;
69822;SDS011;57119;52.516;13.508;2023-05-27T02:08:58;11.20;;;3.10;;
69822;SDS011;57119;52.516;13.508;2023-05-27T02:11:23;11.27;;;3.07;;
69822;SDS011;57119;52.516;13.508;2023-05-27T02:13:49;13.20;;;3.90;;
69822;SDS011;57119;52.516;13.508;2023-05-27T02:16:14;14.18;;;3.25;;
69822;SDS011;57119;52.516;13.508;2023-05-27T02:18:40;8.87;;;3.20;;
69822;SDS011;57119;52.516;13.508;2023-05-27T02:21:06;12.87;;;3.27;;
69822;SDS011;57119;52.516;13.508;2023-05-27T02:23:32;12.95;;;3.70;;
69822;SDS011;57119;52.516;13.508;2023-05-27T02:25:58;14.20;;;3.33;;
69822;SDS011;57119;52.516;13.508;2023-05-27T02:28:23;12.27;;;3.20;;
69822;SDS011;57119;52.516;13.508;2023-05-27T02:30:49;10.43;;;3.03;;
69822;SDS011;57119;52.516;13.508;2023-05-27T02:33:14;12.88;;;3.38;;
69822;SDS011;57119;52.516;13.508;2023-05-27T02:35:40;13.77;;;3.47;;
69822;SDS011;57119;52.516;13.508;2023-05-27T02:38:05;11.80;;;3.53;;
69822;SDS011;57119;52.516;13.508;2023-05-27T02:40:31;10.38;;;3.00;;
69822;SDS011;57119;52.516;13.508;2023-05-27T02:42:56;11.87;;;3.60;;
69822;SDS011;57119;52.516;13.508;2023-05-27T02:45:22;14.57;;;3.43;;
69822;SDS011;57119;52.516;13.508;2023-05-27T02:47:47;12.17;;;3.20;;
69822;SDS011;57119;52.516;13.508;2023-05-27T02:50:13;10.77;;;4.00;;
69822;SDS011;57119;52.516;13.508;2023-05-27T02:52:38;10.90;;;3.53;;
69822;SDS011;57119;52.516;13.508;2023-05-27T02:55:04;15.13;;;3.88;;
69822;SDS011;57119;52.516;13.508;2023-05-27T02:57:30;11.05;;;3.63;;
69822;SDS011;57119;52.516;13.508;2023-05-27T02:59:56;14.10;;;3.50;;
69822;SDS011;57119;52.516;13.508;2023-05-27T03:02:21;10.33;;;3.20;;
69822;SDS011;57119;52.516;13.508;2023-05-27T03:04:47;11.73;;;3.17;;
69822;SDS011;57119;52.516;13.508;2023-05-27T03:07:13;12.02;;;3.58;;
69822;SDS011;57119;52.516;13.508;2023-05-27T03:09:38;11.53;;;3.50;;
69822;SDS011;57119;52.516;13.508;2023-05-27T03:12:03;13.70;;;3.57;;
69822;SDS011;57119;52.516;13.508;2023-05-27T03:14:30;12.13;;;3.40;;
69822;SDS011;57119;52.516;13.508;2023-05-27T03:16:56;16.75;;;3.53;;
69822;SDS011;57119;52.516;13.508;2023-05-27T03:19:21;13.10;;;3.77;;
69822;SDS011;57119;52.516;13.508;2023-05-27T03:21:47;10.83;;;3.33;;
69822;SDS011;57119;52.516;13.508;2023-05-27T03:24:12;9.77;;;3.13;;
69822;SDS011;57119;52.516;13.508;2023-05-27T03:26:38;13.60;;;3.67;;
69822;SDS011;57119;52.516;13.508;2023-05-27T03:29:03;14.50;;;3.70;;
69822;SDS011;57119;52.516;13.508;2023-05-27T03:31:29;12.93;;;3.33;;
69822;SDS011;57119;52.516;13.508;2023-05-27T03:33:54;10.88;;;3.15;;
69822;SDS011;57119;52.516;13.508;2023-05-27T03:36:20;13.00;;;3.73;;
69822;SDS011;57119;52.516;13.508;2023-05-27T03:38:46;15.00;;;3.63;;
69822;SDS011;57119;52.516;13.508;2023-05-27T03:41:12;11.20;;;3.10;;
69822;SDS011;57119;52.516;13.508;2023-05-27T03:43:37;11.07;;;3.33;;
69822;SDS011;57119;52.516;13.508;2023-05-27T03:46:02;14.37;;;3.90;;
69822;SDS011;57119;52.516;13.508;2023-05-27T03:48:28;12.57;;;3.50;;
69822;SDS011;57119;52.516;13.508;2023-05-27T03:50:54;10.68;;;3.25;;
69822;SDS011;57119;52.516;13.508;2023-05-27T03:53:19;14.93;;;3.43;;
69822;SDS011;57119;52.516;13.508;2023-05-27T03:55:45;16.23;;;3.75;;
69822;SDS011;57119;52.516;13.508;2023-05-27T03:58:10;13.90;;;3.83;;
69822;SDS011;57119;52.516;13.508;2023-05-27T04:00:38;14.52;;;3.35;;
69822;SDS011;57119;52.516;13.508;2023-05-27T04:03:06;14.37;;;4.30;;
69822;SDS011;57119;52.516;13.508;2023-05-27T04:05:32;14.10;;;3.42;;
69822;SDS011;57119;52.516;13.508;2023-05-27T04:07:57;11.47;;;3.83;;
69822;SDS011;57119;52.516;13.508;2023-05-27T04:10:23;10.27;;;2.97;;
69822;SDS011;57119;52.516;13.508;2023-05-27T04:12:48;12.07;;;3.13;;
69822;SDS011;57119;52.516;13.508;2023-05-27T04:15:14;9.90;;;3.53;;
69822;SDS011;57119;52.516;13.508;2023-05-27T04:17:39;13.23;;;3.63;;
69822;SDS011;57119;52.516;13.508;2023-05-27T04:20:05;13.07;;;3.33;;
69822;SDS011;57119;52.516;13.508;2023-05-27T04:22:38;11.90;;;4.13;;
69822;SDS011;57119;52.516;13.508;2023-05-27T04:25:03;10.73;;;3.60;;
69822;SDS011;57119;52.516;13.508;2023-05-27T04:27:29;13.88;;;4.07;;
69822;SDS011;57119;52.516;13.508;2023-05-27T04:29:54;15.93;;;4.07;;
69822;SDS011;57119;52.516;13.508;2023-05-27T04:32:20;14.07;;;4.20;;
69822;SDS011;57119;52.516;13.508;2023-05-27T04:34:45;13.07;;;3.83;;
69822;SDS011;57119;52.516;13.508;2023-05-27T04:37:12;17.07;;;4.43;;
69822;SDS011;57119;52.516;13.508;2023-05-27T04:39:37;14.30;;;3.47;;
69822;SDS011;57119;52.516;13.508;2023-05-27T04:42:10;15.07;;;4.20;;
69822;SDS011;57119;52.516;13.508;2023-05-27T04:44:35;10.83;;;3.17;;
69822;SDS011;57119;52.516;13.508;2023-05-27T04:47:01;14.43;;;4.07;;
69822;SDS011;57119;52.516;13.508;2023-05-27T04:49:26;17.97;;;3.70;;
69822;SDS011;57119;52.516;13.508;2023-05-27T04:51:52;14.63;;;4.07;;
69822;SDS011;57119;52.516;13.508;2023-05-27T04:54:17;13.43;;;3.27;;
69822;SDS011;57119;52.516;13.508;2023-05-27T04:56:43;14.00;;;3.90;;
69822;SDS011;57119;52.516;13.508;2023-05-27T04:59:08;12.65;;;3.50;;
69822;SDS011;57119;52.516;13.508;2023-05-27T05:01:41;13.07;;;3.03;;
69822;SDS011;57119;52.516;13.508;2023-05-27T05:04:35;11.77;;;2.70;;
69822;SDS011;57119;52.516;13.508;2023-05-27T05:07:03;14.77;;;4.35;;
69822;SDS011;57119;52.516;13.508;2023-05-27T05:09:29;12.43;;;3.10;;
69822;SDS011;57119;52.516;13.508;2023-05-27T05:11:55;15.13;;;3.40;;
69822;SDS011;57119;52.516;13.508;2023-05-27T05:14:20;10.53;;;2.97;;
69822;SDS011;57119;52.516;13.508;2023-05-27T05:16:45;12.47;;;3.50;;
69822;SDS011;57119;52.516;13.508;2023-05-27T05:19:12;12.93;;;3.03;;
69822;SDS011;57119;52.516;13.508;2023-05-27T05:21:38;10.95;;;3.50;;
69822;SDS011;57119;52.516;13.508;2023-05-27T05:24:03;17.63;;;3.97;;
69822;SDS011;57119;52.516;13.508;2023-05-27T05:26:29;13.77;;;3.78;;
69822;SDS011;57119;52.516;13.508;2023-05-27T05:28:54;11.03;;;2.90;;
69822;SDS011;57119;52.516;13.508;2023-05-27T05:31:20;11.70;;;3.13;;
69822;SDS011;57119;52.516;13.508;2023-05-27T05:33:46;15.98;;;3.63;;
69822;SDS011;57119;52.516;13.508;2023-05-27T05:36:11;11.60;;;3.23;;
69822;SDS011;57119;52.516;13.508;2023-05-27T05:38:36;13.03;;;3.50;;
69822;SDS011;57119;52.516;13.508;2023-05-27T05:41:02;8.50;;;2.70;;
69822;SDS011;57119;52.516;13.508;2023-05-27T05:43:28;11.50;;;3.73;;
69822;SDS011;57119;52.516;13.508;2023-05-27T05:45:53;8.73;;;2.60;;
69822;SDS011;57119;52.516;13.508;2023-05-27T05:48:19;10.77;;;3.30;;
69822;SDS011;57119;52.516;13.508;2023-05-27T05:50:44;12.60;;;2.77;;
69822;SDS011;57119;52.516;13.508;2023-05-27T05:53:10;10.27;;;2.70;;
69822;SDS011;57119;52.516;13.508;2023-05-27T05:55:36;12.43;;;2.70;;
69822;SDS011;57119;52.516;13.508;2023-05-27T05:58:01;9.45;;;2.65;;
69822;SDS011;57119;52.516;13.508;2023-05-27T06:00:27;9.50;;;2.87;;
69822;SDS011;57119;52.516;13.508;2023-05-27T06:02:53;12.68;;;2.70;;
69822;SDS011;57119;52.516;13.508;2023-05-27T06:05:18;8.13;;;2.93;;
69822;SDS011;57119;52.516;13.508;2023-05-27T06:07:44;9.00;;;2.40;;
69822;SDS011;57119;52.516;13.508;2023-05-27T06:10:10;9.50;;;2.33;;
69822;SDS011;57119;52.516;13.508;2023-05-27T06:12:35;9.95;;;2.22;;
69822;SDS011;57119;52.516;13.508;2023-05-27T06:15:01;10.37;;;2.00;;
69822;SDS011;57119;52.516;13.508;2023-05-27T06:17:27;7.93;;;2.10;;
69822;SDS011;57119;52.516;13.508;2023-05-27T06:19:52;7.60;;;2.40;;
69822;SDS011;57119;52.516;13.508;2023-05-27T06:22:18;10.40;;;2.33;;
69822;SDS011;57119;52.516;13.508;2023-05-27T06:24:43;6.30;;;2.20;;
69822;SDS011;57119;52.516;13.508;2023-05-27T06:27:08;7.35;;;2.20;;
69822;SDS011;57119;52.516;13.508;2023-05-27T06:29:35;6.70;;;2.07;;
69822;SDS011;57119;52.516;13.508;2023-05-27T06:32:00;7.03;;;2.30;;
69822;SDS011;57119;52.516;13.508;2023-05-27T06:34:26;7.80;;;1.97;;
69822;SDS011;57119;52.516;13.508;2023-05-27T06:36:51;7.97;;;2.10;;
69822;SDS011;57119;52.516;13.508;2023-05-27T06:39:17;6.40;;;1.80;;
69822;SDS011;57119;52.516;13.508;2023-05-27T06:41:42;7.30;;;2.03;;
69822;SDS011;57119;52.516;13.508;2023-05-27T06:44:07;5.77;;;1.60;;
69822;SDS011;57119;52.516;13.508;2023-05-27T06:46:33;6.10;;;1.80;;
69822;SDS011;57119;52.516;13.508;2023-05-27T06:48:58;9.20;;;1.80;;
69822;SDS011;57119;52.516;13.508;2023-05-27T06:51:24;7.53;;;2.00;;
69822;SDS011;57119;52.516;13.508;2023-05-27T06:53:49;6.43;;;2.08;;
69822;SDS011;57119;52.516;13.508;2023-05-27T06:56:14;7.27;;;1.60;;
69822;SDS011;57119;52.516;13.508;2023-05-27T06:58:40;5.70;;;2.30;;
69822;SDS011;57119;52.516;13.508;2023-05-27T07:01:06;6.70;;;1.67;;
69822;SDS011;57119;52.516;13.508;2023-05-27T07:03:32;4.32;;;1.50;;
69822;SDS011;57119;52.516;13.508;2023-05-27T07:05:58;4.77;;;1.40;;
69822;SDS011;57119;52.516;13.508;2023-05-27T07:08:23;5.18;;;1.58;;
69822;SDS011;57119;52.516;13.508;2023-05-27T07:10:49;7.60;;;1.57;;
69822;SDS011;57119;52.516;13.508;2023-05-27T07:13:15;5.82;;;1.70;;
69822;SDS011;57119;52.516;13.508;2023-05-27T07:15:40;5.37;;;1.47;;
69822;SDS011;57119;52.516;13.508;2023-05-27T07:18:07;3.28;;;1.20;;
69822;SDS011;57119;52.516;13.508;2023-05-27T07:20:32;8.10;;;1.43;;
69822;SDS011;57119;52.516;13.508;2023-05-27T07:22:58;6.25;;;1.60;;
69822;SDS011;57119;52.516;13.508;2023-05-27T07:25:23;7.90;;;1.70;;
69822;SDS011;57119;52.516;13.508;2023-05-27T07:27:50;5.25;;;1.65;;
69822;SDS011;57119;52.516;13.508;2023-05-27T07:30:15;5.50;;;1.43;;
69822;SDS011;57119;52.516;13.508;2023-05-27T07:32:40;4.90;;;1.20;;
69822;SDS011;57119;52.516;13.508;2023-05-27T07:35:06;4.53;;;1.50;;
69822;SDS011;57119;52.516;13.508;2023-05-27T07:37:31;4.93;;;1.50;;
69822;SDS011;57119;52.516;13.508;2023-05-27T07:39:57;6.87;;;1.53;;
69822;SDS011;57119;52.516;13.508;2023-05-27T07:42:22;4.82;;;1.50;;
69822;SDS011;57119;52.516;13.508;2023-05-27T07:44:48;4.20;;;1.53;;
69822;SDS011;57119;52.516;13.508;2023-05-27T07:47:14;4.20;;;1.60;;
69822;SDS011;57119;52.516;13.508;2023-05-27T07:49:39;7.53;;;1.93;;
69822;SDS011;57119;52.516;13.508;2023-05-27T07:52:05;4.77;;;1.40;;
69822;SDS011;57119;52.516;13.508;2023-05-27T07:54:31;6.40;;;2.05;;
69822;SDS011;57119;52.516;13.508;2023-05-27T07:56:56;5.30;;;1.50;;
69822;SDS011;57119;52.516;13.508;2023-05-27T07:59:23;4.95;;;1.60;;
69822;SDS011;57119;52.516;13.508;2023-05-27T08:01:48;5.75;;;1.90;;
69822;SDS011;57119;52.516;13.508;2023-05-27T08:04:14;4.67;;;1.43;;
69822;SDS011;57119;52.516;13.508;2023-05-27T08:06:39;4.25;;;1.80;;
69822;SDS011;57119;52.516;13.508;2023-05-27T08:09:05;4.83;;;1.60;;
69822;SDS011;57119;52.516;13.508;2023-05-27T08:11:32;4.93;;;1.77;;
69822;SDS011;57119;52.516;13.508;2023-05-27T08:13:58;5.20;;;1.73;;
69822;SDS011;57119;52.516;13.508;2023-05-27T08:16:23;4.47;;;1.80;;
69822;SDS011;57119;52.516;13.508;2023-05-27T08:18:48;3.33;;;1.37;;
69822;SDS011;57119;52.516;13.508;2023-05-27T08:21:14;3.97;;;1.65;;
69822;SDS011;57119;52.516;13.508;2023-05-27T08:23:40;5.43;;;1.70;;
69822;SDS011;57119;52.516;13.508;2023-05-27T08:26:05;4.53;;;1.70;;
69822;SDS011;57119;52.516;13.508;2023-05-27T08:28:30;4.83;;;2.00;;
69822;SDS011;57119;52.516;13.508;2023-05-27T08:30:59;6.73;;;1.80;;
69822;SDS011;57119;52.516;13.508;2023-05-27T08:33:25;4.55;;;1.70;;
69822;SDS011;57119;52.516;13.508;2023-05-27T08:35:51;4.18;;;2.00;;
69822;SDS011;57119;52.516;13.508;2023-05-27T08:38:16;6.03;;;2.10;;
69822;SDS011;57119;52.516;13.508;2023-05-27T08:40:42;4.20;;;1.77;;
69822;SDS011;57119;52.516;13.508;2023-05-27T08:43:07;4.63;;;1.65;;
69822;SDS011;57119;52.516;13.508;2023-05-27T08:45:33;5.57;;;1.50;;
69822;SDS011;57119;52.516;13.508;2023-05-27T08:47:59;4.30;;;1.42;;
69822;SDS011;57119;52.516;13.508;2023-05-27T08:50:26;4.07;;;1.58;;
69822;SDS011;57119;52.516;13.508;2023-05-27T08:52:54;4.53;;;1.77;;
69822;SDS011;57119;52.516;13.508;2023-05-27T08:55:20;4.60;;;1.70;;
69822;SDS011;57119;52.516;13.508;2023-05-27T08:57:56;3.55;;;1.42;;
69822;SDS011;57119;52.516;13.508;2023-05-27T09:00:24;4.00;;;2.10;;
69822;SDS011;57119;52.516;13.508;2023-05-27T09:02:51;3.33;;;1.42;;
69822;SDS011;57119;52.516;13.508;2023-05-27T09:05:17;5.90;;;2.13;;
69822;SDS011;57119;52.516;13.508;2023-05-27T09:07:43;3.88;;;1.48;;
69822;SDS011;57119;52.516;13.508;2023-05-27T09:10:09;5.87;;;2.10;;
69822;SDS011;57119;52.516;13.508;2023-05-27T09:12:35;4.50;;;2.10;;
69822;SDS011;57119;52.516;13.508;2023-05-27T09:15:01;5.43;;;2.47;;
69822;SDS011;57119;52.516;13.508;2023-05-27T09:17:28;4.97;;;2.03;;
69822;SDS011;57119;52.516;13.508;2023-05-27T09:19:54;5.33;;;2.47;;
69822;SDS011;57119;52.516;13.508;2023-05-27T09:22:20;4.85;;;2.05;;
69822;SDS011;57119;52.516;13.508;2023-05-27T09:24:47;5.05;;;1.80;;
69822;SDS011;57119;52.516;13.508;2023-05-27T09:27:13;4.60;;;1.70;;
69822;SDS011;57119;52.516;13.508;2023-05-27T09:29:39;6.05;;;2.58;;
69822;SDS011;57119;52.516;13.508;2023-05-27T09:32:05;4.22;;;2.30;;
69822;SDS011;57119;52.516;13.508;2023-05-27T09:34:37;5.17;;;2.50;;
69822;SDS011;57119;52.516;13.508;2023-05-27T09:37:03;4.00;;;1.77;;
69822;SDS011;57119;52.516;13.508;2023-05-27T09:39:29;4.28;;;2.50;;
69822;SDS011;57119;52.516;13.508;2023-05-27T09:41:55;6.17;;;2.63;;
69822;SDS011;57119;52.516;13.508;2023-05-27T09:44:27;5.85;;;2.78;;
69822;SDS011;57119;52.516;13.508;2023-05-27T09:46:54;5.90;;;2.20;;
69822;SDS011;57119;52.516;13.508;2023-05-27T09:49:20;4.95;;;2.58;;
69822;SDS011;57119;52.516;13.508;2023-05-27T09:51:47;4.80;;;2.40;;
69822;SDS011;57119;52.516;13.508;2023-05-27T09:54:16;4.80;;;2.72;;
69822;SDS011;57119;52.516;13.508;2023-05-27T09:56:43;5.55;;;2.97;;
69822;SDS011;57119;52.516;13.508;2023-05-27T09:59:11;4.80;;;3.10;;
69822;SDS011;57119;52.516;13.508;2023-05-27T10:01:37;4.67;;;2.43;;
69822;SDS011;57119;52.516;13.508;2023-05-27T10:04:05;5.10;;;2.35;;
69822;SDS011;57119;52.516;13.508;2023-05-27T10:06:31;5.55;;;3.10;;
69822;SDS011;57119;52.516;13.508;2023-05-27T10:08:58;5.68;;;3.05;;
69822;SDS011;57119;52.516;13.508;2023-05-27T10:11:26;5.77;;;2.60;;
69822;SDS011;57119;52.516;13.508;2023-05-27T10:13:56;5.00;;;2.47;;
69822;SDS011;57119;52.516;13.508;2023-05-27T10:16:22;5.17;;;2.90;;
69822;SDS011;57119;52.516;13.508;2023-05-27T10:18:52;6.07;;;2.83;;
69822;SDS011;57119;52.516;13.508;2023-05-27T10:21:19;5.70;;;2.90;;
69822;SDS011;57119;52.516;13.508;2023-05-27T10:23:58;5.63;;;2.87;;
69822;SDS011;57119;52.516;13.508;2023-05-27T10:29:05;6.57;;;3.72;;
69822;SDS011;57119;52.516;13.508;2023-05-27T10:31:32;6.10;;;3.47;;
69822;SDS011;57119;52.516;13.508;2023-05-27T10:33:58;6.37;;;4.03;;
69822;SDS011;57119;52.516;13.508;2023-05-27T10:36:27;7.50;;;3.57;;
69822;SDS011;57119;52.516;13.508;2023-05-27T10:39:02;5.55;;;3.00;;
69822;SDS011;57119;52.516;13.508;2023-05-27T10:41:39;6.15;;;3.10;;
69822;SDS011;57119;52.516;13.508;2023-05-27T10:44:08;5.70;;;3.22;;
69822;SDS011;57119;52.516;13.508;2023-05-27T10:46:41;5.20;;;2.85;;
69822;SDS011;57119;52.516;13.508;2023-05-27T10:49:09;5.87;;;3.17;;
69822;SDS011;57119;52.516;13.508;2023-05-27T10:52:10;6.10;;;3.00;;
69822;SDS011;57119;52.516;13.508;2023-05-27T10:54:41;6.65;;;3.30;;
69822;SDS011;57119;52.516;13.508;2023-05-27T10:57:07;5.70;;;3.10;;
69822;SDS011;57119;52.516;13.508;2023-05-27T11:02:18;5.93;;;3.17;;
69822;SDS011;57119;52.516;13.508;2023-05-27T11:04:44;5.18;;;3.42;;
69822;SDS011;57119;52.516;13.508;2023-05-27T11:07:10;6.53;;;3.63;;
69822;SDS011;57119;52.516;13.508;2023-05-27T11:09:45;6.57;;;3.15;;
69822;SDS011;57119;52.516;13.508;2023-05-27T11:12:18;5.50;;;2.75;;
69822;SDS011;57119;52.516;13.508;2023-05-27T11:17:20;5.70;;;3.10;;
69822;SDS011;57119;52.516;13.508;2023-05-27T11:19:46;5.93;;;3.08;;
69822;SDS011;57119;52.516;13.508;2023-05-27T11:22:15;6.82;;;3.40;;
69822;SDS011;57119;52.516;13.508;2023-05-27T11:24:42;6.28;;;3.17;;
69822;SDS011;57119;52.516;13.508;2023-05-27T11:27:08;5.20;;;2.83;;
69822;SDS011;57119;52.516;13.508;2023-05-27T11:29:35;5.35;;;3.42;;
69822;SDS011;57119;52.516;13.508;2023-05-27T11:32:02;6.10;;;3.45;;
69822;SDS011;57119;52.516;13.508;2023-05-27T11:34:28;5.78;;;3.72;;
69822;SDS011;57119;52.516;13.508;2023-05-27T11:36:53;6.13;;;3.20;;
69822;SDS011;57119;52.516;13.508;2023-05-27T11:39:21;5.53;;;3.20;;
69822;SDS011;57119;52.516;13.508;2023-05-27T11:41:49;7.33;;;3.70;;
69822;SDS011;57119;52.516;13.508;2023-05-27T11:44:17;6.05;;;2.90;;
69822;SDS011;57119;52.516;13.508;2023-05-27T11:46:43;5.85;;;3.47;;
69822;SDS011;57119;52.516;13.508;2023-05-27T11:49:12;6.07;;;3.28;;
69822;SDS011;57119;52.516;13.508;2023-05-27T11:51:39;6.72;;;3.63;;
69822;SDS011;57119;52.516;13.508;2023-05-27T11:54:05;5.90;;;3.33;;
69822;SDS011;57119;52.516;13.508;2023-05-27T11:56:32;5.93;;;3.37;;
69822;SDS011;57119;52.516;13.508;2023-05-27T11:58:57;5.10;;;3.63;;
69822;SDS011;57119;52.516;13.508;2023-05-27T12:01:23;5.28;;;2.72;;
69822;SDS011;57119;52.516;13.508;2023-05-27T12:03:49;6.27;;;3.40;;
69822;SDS011;57119;52.516;13.508;2023-05-27T12:06:14;5.37;;;2.50;;
69822;SDS011;57119;52.516;13.508;2023-05-27T12:08:43;4.57;;;2.55;;
69822;SDS011;57119;52.516;13.508;2023-05-27T12:11:08;6.72;;;3.63;;
69822;SDS011;57119;52.516;13.508;2023-05-27T12:13:34;5.60;;;3.40;;
69822;SDS011;57119;52.516;13.508;2023-05-27T12:15:59;6.32;;;3.30;;
69822;SDS011;57119;52.516;13.508;2023-05-27T12:18:25;6.20;;;3.40;;
69822;SDS011;57119;52.516;13.508;2023-05-27T12:20:50;7.60;;;3.90;;
69822;SDS011;57119;52.516;13.508;2023-05-27T12:23:16;6.97;;;3.20;;
69822;SDS011;57119;52.516;13.508;2023-05-27T12:25:42;5.53;;;3.17;;
69822;SDS011;57119;52.516;13.508;2023-05-27T12:28:08;5.10;;;3.07;;
69822;SDS011;57119;52.516;13.508;2023-05-27T12:30:34;6.15;;;3.17;;
69822;SDS011;57119;52.516;13.508;2023-05-27T12:33:03;5.22;;;3.30;;
69822;SDS011;57119;52.516;13.508;2023-05-27T12:35:30;5.50;;;3.10;;
69822;SDS011;57119;52.516;13.508;2023-05-27T12:37:56;5.22;;;3.42;;
69822;SDS011;57119;52.516;13.508;2023-05-27T12:40:22;5.63;;;3.30;;
69822;SDS011;57119;52.516;13.508;2023-05-27T12:42:48;6.85;;;3.15;;
69822;SDS011;57119;52.516;13.508;2023-05-27T12:45:14;6.60;;;3.33;;
69822;SDS011;57119;52.516;13.508;2023-05-27T12:47:39;6.07;;;3.22;;
69822;SDS011;57119;52.516;13.508;2023-05-27T12:50:05;5.43;;;2.50;;
69822;SDS011;57119;52.516;13.508;2023-05-27T12:52:32;6.28;;;3.80;;
69822;SDS011;57119;52.516;13.508;2023-05-27T12:54:57;5.27;;;3.33;;
69822;SDS011;57119;52.516;13.508;2023-05-27T12:57:23;5.50;;;2.67;;
69822;SDS011;57119;52.516;13.508;2023-05-27T12:59:48;5.10;;;3.07;;
69822;SDS011;57119;52.516;13.508;2023-05-27T13:02:14;5.43;;;2.70;;
69822;SDS011;57119;52.516;13.508;2023-05-27T13:04:39;5.05;;;3.03;;
69822;SDS011;57119;52.516;13.508;2023-05-27T13:07:05;5.77;;;3.53;;
69822;SDS011;57119;52.516;13.508;2023-05-27T13:09:34;5.57;;;2.67;;
69822;SDS011;57119;52.516;13.508;2023-05-27T13:11:59;5.60;;;3.47;;
69822;SDS011;57119;52.516;13.508;2023-05-27T13:14:25;5.50;;;3.80;;
69822;SDS011;57119;52.516;13.508;2023-05-27T13:16:50;5.13;;;3.07;;
69822;SDS011;57119;52.516;13.508;2023-05-27T13:19:16;5.03;;;3.50;;
69822;SDS011;57119;52.516;13.508;2023-05-27T13:21:41;6.90;;;3.58;;
69822;SDS011;57119;52.516;13.508;2023-05-27T13:24:07;5.90;;;3.20;;
69822;SDS011;57119;52.516;13.508;2023-05-27T13:26:32;6.17;;;3.47;;
69822;SDS011;57119;52.516;13.508;2023-05-27T13:28:58;5.57;;;3.30;;
69822;SDS011;57119;52.516;13.508;2023-05-27T13:31:23;6.17;;;3.93;;
69822;SDS011;57119;52.516;13.508;2023-05-27T13:33:49;5.38;;;2.97;;
69822;SDS011;57119;52.516;13.508;2023-05-27T13:36:14;5.80;;;3.30;;
69822;SDS011;57119;52.516;13.508;2023-05-27T13:38:40;10.10;;;3.67;;
69822;SDS011;57119;52.516;13.508;2023-05-27T13:41:05;6.70;;;3.47;;
69822;SDS011;57119;52.516;13.508;2023-05-27T13:43:31;5.20;;;3.00;;
69822;SDS011;57119;52.516;13.508;2023-05-27T13:45:56;6.37;;;2.73;;
69822;SDS011;57119;52.516;13.508;2023-05-27T13:48:22;5.35;;;3.70;;
69822;SDS011;57119;52.516;13.508;2023-05-27T13:50:48;5.50;;;3.40;;
69822;SDS011;57119;52.516;13.508;2023-05-27T13:53:14;6.15;;;3.55;;
69822;SDS011;57119;52.516;13.508;2023-05-27T13:55:39;6.27;;;3.33;;
69822;SDS011;57119;52.516;13.508;2023-05-27T13:58:04;5.40;;;3.65;;
69822;SDS011;57119;52.516;13.508;2023-05-27T14:00:30;6.37;;;3.43;;
69822;SDS011;57119;52.516;13.508;2023-05-27T14:02:56;6.93;;;4.10;;
69822;SDS011;57119;52.516;13.508;2023-05-27T14:05:24;4.88;;;3.05;;
69822;SDS011;57119;52.516;13.508;2023-05-27T14:07:51;6.43;;;3.33;;
69822;SDS011;57119;52.516;13.508;2023-05-27T14:10:17;5.70;;;3.37;;
69822;SDS011;57119;52.516;13.508;2023-05-27T14:12:42;5.20;;;3.38;;
69822;SDS011;57119;52.516;13.508;2023-05-27T14:15:08;5.10;;;3.20;;
69822;SDS011;57119;52.516;13.508;2023-05-27T14:17:34;6.78;;;3.80;;
69822;SDS011;57119;52.516;13.508;2023-05-27T14:19:59;5.93;;;3.83;;
69822;SDS011;57119;52.516;13.508;2023-05-27T14:22:25;5.23;;;3.17;;
69822;SDS011;57119;52.516;13.508;2023-05-27T14:24:50;6.13;;;3.07;;
69822;SDS011;57119;52.516;13.508;2023-05-27T14:27:16;4.88;;;2.83;;
69822;SDS011;57119;52.516;13.508;2023-05-27T14:29:41;6.43;;;3.70;;
69822;SDS011;57119;52.516;13.508;2023-05-27T14:32:07;5.73;;;3.60;;
69822;SDS011;57119;52.516;13.508;2023-05-27T14:34:32;6.00;;;3.35;;
69822;SDS011;57119;52.516;13.508;2023-05-27T14:36:58;4.97;;;2.80;;
69822;SDS011;57119;52.516;13.508;2023-05-27T14:39:23;5.37;;;3.37;;